Flugwetter

[source: ADDS]
METAR
LOWL 230550Z VRB01KT 9999 SCT030 BKN034 18/16 Q1026 NOSIG =
TAF LOWL 230515Z 2306/2406 10007KT 9999 BKN030 TX25/2315Z TN17/2403Z BECMG 2316/2318 07003KT SCT040
TAF
TAF LOWL 230515Z 2306/2406 10007KT 9999 BKN030 TX25/2315Z TN17/2403Z BECMG 2316/2318 07003KT SCT040 =